createdAt,value
2022-10-23T00:01:33.965Z,99.90
2022-10-23T00:04:04.064Z,99.90
2022-10-23T00:06:33.787Z,99.90
2022-10-23T00:09:02.722Z,99.90
2022-10-23T00:11:31.752Z,99.90
2022-10-23T00:14:02.829Z,99.90
2022-10-23T00:16:31.830Z,99.90
2022-10-23T00:19:00.466Z,99.90
2022-10-23T00:21:29.088Z,99.90
2022-10-23T00:23:57.764Z,99.90
2022-10-23T00:26:26.452Z,99.90
2022-10-23T00:28:55.419Z,99.90
2022-10-23T00:31:24.790Z,99.90
2022-10-23T00:33:53.488Z,99.90
2022-10-23T00:36:23.659Z,99.90
2022-10-23T00:38:52.296Z,99.90
2022-10-23T00:41:22.831Z,99.90
2022-10-23T00:43:55.885Z,99.90
2022-10-23T00:46:24.847Z,99.90
2022-10-23T00:48:53.420Z,99.90
2022-10-23T00:51:22.160Z,99.90
2022-10-23T00:54:01.401Z,99.90
2022-10-23T00:56:23.692Z,99.90
2022-10-23T00:58:52.533Z,99.90
2022-10-23T01:01:23.054Z,99.90
2022-10-23T01:03:52.009Z,99.90
2022-10-23T01:06:22.109Z,99.90
2022-10-23T01:08:52.513Z,99.90
2022-10-23T01:11:26.278Z,99.90
2022-10-23T01:13:56.413Z,99.90
2022-10-23T01:16:26.577Z,99.90
2022-10-23T01:18:57.356Z,99.90
2022-10-23T01:21:36.388Z,99.90
2022-10-23T01:24:06.519Z,99.90
2022-10-23T01:26:53.310Z,99.90
2022-10-23T01:29:24.243Z,99.90
2022-10-23T01:31:54.346Z,99.90
2022-10-23T01:34:30.573Z,99.90
2022-10-23T01:37:01.076Z,99.90
2022-10-23T01:39:31.310Z,99.90
2022-10-23T01:42:01.908Z,99.90
2022-10-23T01:44:40.028Z,99.90
2022-10-23T01:47:10.285Z,99.90
2022-10-23T01:49:42.216Z,99.90
2022-10-23T01:52:12.624Z,99.90
2022-10-23T01:54:44.824Z,99.90
2022-10-23T01:57:14.998Z,99.90
2022-10-23T01:59:45.540Z,99.90
2022-10-23T02:02:15.635Z,99.90
2022-10-23T02:04:50.364Z,99.90
2022-10-23T02:07:18.935Z,99.90
2022-10-23T02:09:47.496Z,99.90
2022-10-23T02:12:21.001Z,99.90
2022-10-23T02:14:53.941Z,99.90
2022-10-23T02:17:24.109Z,99.90
2022-10-23T02:20:11.176Z,99.90
2022-10-23T02:22:41.665Z,99.90
2022-10-23T02:25:57.994Z,99.90
2022-10-23T02:28:30.332Z,99.90
2022-10-23T02:31:03.401Z,99.90
2022-10-23T02:33:33.629Z,99.90
2022-10-23T02:36:03.636Z,99.90
2022-10-23T02:38:35.930Z,99.90
2022-10-23T02:41:25.049Z,99.90
2022-10-23T02:44:09.509Z,99.90
2022-10-23T02:46:45.159Z,99.90
2022-10-23T02:49:41.781Z,99.90
2022-10-23T02:52:44.743Z,99.90
2022-10-23T02:55:32.328Z,99.90
2022-10-23T02:58:04.943Z,99.90
2022-10-23T03:00:37.357Z,99.90
2022-10-23T03:03:22.138Z,99.90
2022-10-23T03:05:52.181Z,99.90
2022-10-23T03:08:21.675Z,99.90
2022-10-23T03:10:51.488Z,99.90
2022-10-23T03:13:22.091Z,99.90
2022-10-23T03:15:51.556Z,99.90
2022-10-23T03:18:20.974Z,99.90
2022-10-23T03:20:51.936Z,99.90
2022-10-23T03:23:23.139Z,99.90
2022-10-23T03:25:54.743Z,99.90
2022-10-23T03:28:38.051Z,99.90
2022-10-23T03:31:09.547Z,99.90
2022-10-23T03:33:40.375Z,99.90
2022-10-23T03:36:11.752Z,99.90
2022-10-23T03:38:41.450Z,99.90
2022-10-23T03:41:12.393Z,99.90
2022-10-23T03:43:41.811Z,99.90
2022-10-23T03:46:13.065Z,99.90
2022-10-23T03:48:42.742Z,99.90
2022-10-23T03:51:12.718Z,99.90
2022-10-23T03:53:42.967Z,99.90
2022-10-23T03:56:12.494Z,99.90
2022-10-23T03:58:41.929Z,99.90
2022-10-23T04:01:11.635Z,99.90
2022-10-23T04:03:41.130Z,99.90
2022-10-23T04:06:10.860Z,99.90
2022-10-23T04:08:40.471Z,99.90
2022-10-23T04:11:11.981Z,99.90
2022-10-23T04:13:46.163Z,99.90
2022-10-23T04:16:17.361Z,99.90
2022-10-23T04:18:47.270Z,99.90
2022-10-23T04:21:17.020Z,99.90
2022-10-23T04:23:46.728Z,99.90
2022-10-23T04:26:20.411Z,99.90
2022-10-23T04:28:49.899Z,99.90
2022-10-23T04:31:19.405Z,99.90
2022-10-23T04:33:48.970Z,99.90
2022-10-23T04:36:20.120Z,99.90
2022-10-23T04:38:49.630Z,99.90
2022-10-23T04:41:19.059Z,99.90
2022-10-23T04:43:48.566Z,99.90
2022-10-23T04:46:18.194Z,99.90
2022-10-23T04:48:49.443Z,99.90
2022-10-23T04:51:20.595Z,99.90
2022-10-23T04:54:00.559Z,99.90
2022-10-23T04:56:48.014Z,99.90
2022-10-23T04:59:19.258Z,99.90
2022-10-23T05:01:49.070Z,99.90
2022-10-23T05:04:19.256Z,99.90
2022-10-23T05:07:06.502Z,99.90
2022-10-23T05:09:40.609Z,99.90
2022-10-23T05:12:21.044Z,99.90
2022-10-23T05:14:50.530Z,99.90
2022-10-23T05:17:31.859Z,99.90
2022-10-23T05:20:04.162Z,99.90
2022-10-23T05:22:36.987Z,99.90
2022-10-23T05:25:08.408Z,99.90
2022-10-23T05:27:37.842Z,99.90
2022-10-23T05:30:09.603Z,99.90
2022-10-23T05:32:41.406Z,99.90
2022-10-23T05:35:14.900Z,99.90
2022-10-23T05:37:48.156Z,99.90
2022-10-23T05:40:19.519Z,99.90
2022-10-23T05:42:50.297Z,99.90
2022-10-23T05:45:21.984Z,99.90
2022-10-23T05:48:11.375Z,99.90
2022-10-23T05:50:59.707Z,99.90
2022-10-23T05:53:30.934Z,99.90
2022-10-23T05:56:19.401Z,99.90
2022-10-23T05:58:50.627Z,99.90
2022-10-23T06:01:23.245Z,99.90
2022-10-23T06:03:56.908Z,99.90
2022-10-23T06:06:28.213Z,99.90
2022-10-23T06:08:57.904Z,99.90
2022-10-23T06:11:27.413Z,99.90
2022-10-23T06:14:00.264Z,99.90
2022-10-23T06:16:29.753Z,99.90
2022-10-23T06:19:00.345Z,99.90
2022-10-23T06:21:29.977Z,99.90
2022-10-23T06:23:59.468Z,99.90
2022-10-23T06:26:40.581Z,99.90
2022-10-23T06:29:11.682Z,99.90
2022-10-23T06:31:42.543Z,99.90
2022-10-23T06:34:13.495Z,99.90
2022-10-23T06:36:43.997Z,99.90
2022-10-23T06:39:15.415Z,99.90
2022-10-23T06:41:46.552Z,99.90
2022-10-23T06:44:17.762Z,99.90
2022-10-23T06:46:49.258Z,99.90
2022-10-23T06:49:36.786Z,99.90
2022-10-23T06:52:14.383Z,99.90
2022-10-23T06:54:39.221Z,99.90
2022-10-23T06:57:13.440Z,99.90
2022-10-23T06:59:47.302Z,99.90
2022-10-23T07:02:17.903Z,99.90
2022-10-23T07:04:47.439Z,99.90
2022-10-23T07:07:19.743Z,99.90
2022-10-23T07:09:50.472Z,99.90
2022-10-23T07:12:24.643Z,99.90
2022-10-23T07:14:55.842Z,99.90
2022-10-23T07:17:25.412Z,99.90
2022-10-23T07:19:54.945Z,99.90
2022-10-23T07:22:25.144Z,99.90
2022-10-23T07:24:59.225Z,99.90
2022-10-23T07:27:30.363Z,99.90
2022-10-23T07:30:01.625Z,99.90
2022-10-23T07:32:32.761Z,99.90
2022-10-23T07:35:20.498Z,99.90
2022-10-23T07:38:01.928Z,99.90
2022-10-23T07:40:33.097Z,99.90
2022-10-23T07:43:02.586Z,99.90
2022-10-23T07:45:32.532Z,99.90
2022-10-23T07:48:03.741Z,99.90
2022-10-23T07:50:34.896Z,99.90
2022-10-23T07:53:04.925Z,99.90
2022-10-23T07:55:36.226Z,99.90
2022-10-23T07:58:07.398Z,99.90
2022-10-23T08:00:45.612Z,99.90
2022-10-23T08:03:16.953Z,99.90
2022-10-23T08:05:46.725Z,99.90
2022-10-23T08:08:16.228Z,99.90
2022-10-23T08:10:49.067Z,99.90
2022-10-23T08:13:21.222Z,99.90
2022-10-23T08:15:56.040Z,99.90
2022-10-23T08:18:27.190Z,99.90
2022-10-23T08:21:03.479Z,99.90
2022-10-23T08:23:33.479Z,99.90
2022-10-23T08:26:05.609Z,99.90
2022-10-23T08:28:35.883Z,99.90
2022-10-23T08:31:11.997Z,99.90
2022-10-23T08:33:42.972Z,99.90
2022-10-23T08:36:24.309Z,99.90
2022-10-23T08:38:55.815Z,99.90
2022-10-23T08:41:29.029Z,99.90
2022-10-23T08:44:03.247Z,99.90
2022-10-23T08:46:37.535Z,99.90
2022-10-23T08:49:23.270Z,99.90
2022-10-23T08:51:58.073Z,99.90
2022-10-23T08:54:33.457Z,99.90
2022-10-23T08:57:06.007Z,99.90
2022-10-23T08:59:41.104Z,99.90
2022-10-23T09:02:24.994Z,99.90
2022-10-23T09:04:57.594Z,99.90
2022-10-23T09:07:35.898Z,99.90
2022-10-23T09:10:40.461Z,99.90
2022-10-23T09:13:41.688Z,99.90
2022-10-23T09:16:16.916Z,99.90
2022-10-23T09:18:49.389Z,99.90
2022-10-23T09:21:18.925Z,99.90
2022-10-23T09:23:48.415Z,99.90
2022-10-23T09:26:19.924Z,99.90
2022-10-23T09:28:56.480Z,99.90
2022-10-23T09:31:25.962Z,99.90
2022-10-23T09:33:58.482Z,99.90
2022-10-23T09:36:29.756Z,99.90
2022-10-23T09:39:01.682Z,99.90
2022-10-23T09:41:39.807Z,99.90
2022-10-23T09:44:12.481Z,99.90
2022-10-23T09:46:45.066Z,99.90
2022-10-23T09:49:20.168Z,99.90
2022-10-23T09:52:02.230Z,99.90
2022-10-23T09:54:34.577Z,99.90
2022-10-23T09:57:07.108Z,99.90
2022-10-23T09:59:36.691Z,99.90
2022-10-23T10:02:09.326Z,99.90
2022-10-23T10:04:57.856Z,99.90
2022-10-23T10:07:33.341Z,99.90
2022-10-23T10:10:01.599Z,99.90
2022-10-23T10:12:59.412Z,99.90
2022-10-23T10:15:37.697Z,99.90
2022-10-23T10:18:31.261Z,99.90
2022-10-23T10:21:12.634Z,99.90
2022-10-23T10:23:50.780Z,99.90
2022-10-23T10:26:31.661Z,99.90
2022-10-23T10:29:31.146Z,99.90
2022-10-23T10:32:06.423Z,99.90
2022-10-23T10:34:39.457Z,99.90
2022-10-23T10:37:17.557Z,99.90
2022-10-23T10:39:55.652Z,99.90
2022-10-23T10:43:03.382Z,99.90
2022-10-23T10:45:36.364Z,99.90
2022-10-23T10:48:23.078Z,99.90
2022-10-23T10:51:12.981Z,99.90
2022-10-23T10:54:04.056Z,99.90
2022-10-23T10:56:34.202Z,99.90
2022-10-23T10:59:04.302Z,99.90
2022-10-23T11:01:37.788Z,99.90
2022-10-23T11:04:14.155Z,99.90
2022-10-23T11:06:44.957Z,99.90
2022-10-23T11:09:23.083Z,99.90
2022-10-23T11:11:51.796Z,99.90
2022-10-23T11:14:21.937Z,99.90
2022-10-23T11:16:52.036Z,99.90
2022-10-23T11:19:24.934Z,99.90
2022-10-23T11:21:55.251Z,99.90
2022-10-23T11:24:31.103Z,99.90
2022-10-23T11:27:07.212Z,99.90
2022-10-23T11:29:46.449Z,99.80
2022-10-23T11:32:22.876Z,98.80
2022-10-23T11:34:55.904Z,98.50
2022-10-23T11:37:26.927Z,98.80
2022-10-23T11:40:03.359Z,98.10
2022-10-23T11:42:42.958Z,97.80
2022-10-23T11:45:31.542Z,97.60
2022-10-23T11:48:01.775Z,97.20
2022-10-23T11:50:32.057Z,96.90
2022-10-23T11:53:13.602Z,96.50
2022-10-23T11:55:34.024Z,96.50
2022-10-23T11:58:06.892Z,96.80
2022-10-23T12:00:37.104Z,96.60
2022-10-23T12:03:06.399Z,97.10
2022-10-23T12:05:37.781Z,97.20
2022-10-23T12:08:07.682Z,96.90
2022-10-23T12:10:38.945Z,97.20
2022-10-23T12:13:09.054Z,97.40
2022-10-23T12:15:37.787Z,97.80
2022-10-23T12:18:11.009Z,97.60
2022-10-23T12:20:53.397Z,97.50
2022-10-23T12:23:23.721Z,97.50
2022-10-23T12:26:02.853Z,96.60
2022-10-23T12:28:33.025Z,96.80
2022-10-23T12:31:21.882Z,97.10
2022-10-23T12:34:01.242Z,96.70
2022-10-23T12:36:37.403Z,97.00
2022-10-23T12:39:07.679Z,97.20
2022-10-23T12:41:37.872Z,97.30
2022-10-23T12:44:07.987Z,97.20
2022-10-23T12:46:38.017Z,97.40
2022-10-23T12:49:17.979Z,97.00
2022-10-23T12:51:48.896Z,97.10
2022-10-23T12:54:18.423Z,96.80
2022-10-23T12:56:47.589Z,96.70
2022-10-23T12:59:20.607Z,96.70
2022-10-23T13:01:52.569Z,96.50
2022-10-23T13:04:29.876Z,96.60
2022-10-23T13:06:59.920Z,96.60
2022-10-23T13:09:30.092Z,96.40
2022-10-23T13:12:01.557Z,96.40
2022-10-23T13:14:32.444Z,96.40
2022-10-23T13:17:01.981Z,96.70
2022-10-23T13:19:30.576Z,96.60
2022-10-23T13:21:59.900Z,97.00
2022-10-23T13:24:29.907Z,96.60
2022-10-23T13:26:59.320Z,96.60
2022-10-23T13:29:32.566Z,96.30
2022-10-23T13:32:11.489Z,97.00
2022-10-23T13:34:40.052Z,96.60
2022-10-23T13:37:25.537Z,96.60
2022-10-23T13:40:04.888Z,96.40
2022-10-23T13:42:33.810Z,96.80
2022-10-23T13:45:02.437Z,96.90
2022-10-23T13:47:31.081Z,96.80
2022-10-23T13:49:59.679Z,96.90
2022-10-23T13:52:28.241Z,96.80
2022-10-23T13:54:57.514Z,96.80
2022-10-23T13:57:26.882Z,97.20
2022-10-23T13:59:55.706Z,96.40
2022-10-23T14:02:25.077Z,96.30
2022-10-23T14:04:55.673Z,96.00
2022-10-23T14:07:24.307Z,96.20
2022-10-23T14:09:52.909Z,95.60
2022-10-23T14:12:21.675Z,95.90
2022-10-23T14:14:53.573Z,95.80
2022-10-23T14:17:22.779Z,94.90
2022-10-23T14:19:51.542Z,95.00
2022-10-23T14:22:20.094Z,94.90
2022-10-23T14:24:48.725Z,95.30
2022-10-23T14:27:18.080Z,95.10
2022-10-23T14:29:47.562Z,95.30
2022-10-23T14:32:17.025Z,95.20
2022-10-23T14:34:49.545Z,95.20
2022-10-23T14:37:19.641Z,95.30
2022-10-23T14:39:50.366Z,95.00
2022-10-23T14:42:20.378Z,94.90
2022-10-23T14:44:50.754Z,95.60
2022-10-23T14:47:20.998Z,95.10
2022-10-23T14:49:54.254Z,95.10
2022-10-23T14:52:24.591Z,95.50
2022-10-23T14:54:54.758Z,95.90
2022-10-23T14:57:24.195Z,95.30
2022-10-23T14:59:53.658Z,95.30
2022-10-23T15:02:23.167Z,95.10
2022-10-23T15:04:52.590Z,95.30
2022-10-23T15:07:22.790Z,95.30
2022-10-23T15:09:52.288Z,95.20
2022-10-23T15:12:21.793Z,95.30
2022-10-23T15:14:51.501Z,95.80
2022-10-23T15:17:20.901Z,96.00
2022-10-23T15:19:50.310Z,96.00
2022-10-23T15:22:19.884Z,95.90
2022-10-23T15:24:49.676Z,96.10
2022-10-23T15:27:20.056Z,96.90
2022-10-23T15:29:49.639Z,96.50
2022-10-23T15:32:19.968Z,96.90
2022-10-23T15:34:49.891Z,97.30
2022-10-23T15:37:19.340Z,96.80
2022-10-23T15:39:48.834Z,97.30
2022-10-23T15:42:19.666Z,97.80
2022-10-23T15:44:49.763Z,98.90
2022-10-23T15:47:19.317Z,98.70
2022-10-23T15:49:48.821Z,99.40
2022-10-23T15:52:18.287Z,99.50
2022-10-23T15:54:47.783Z,99.30
2022-10-23T15:57:17.289Z,99.00
2022-10-23T15:59:48.051Z,99.00
2022-10-23T16:02:17.569Z,99.40
2022-10-23T16:04:47.251Z,99.90
2022-10-23T16:07:16.787Z,99.90
2022-10-23T16:09:46.220Z,99.20
2022-10-23T16:12:15.739Z,99.20
2022-10-23T16:14:45.863Z,98.90
2022-10-23T16:19:45.633Z,98.90
2022-10-23T16:22:16.388Z,98.40
2022-10-23T16:24:45.825Z,97.40
2022-10-23T16:27:15.374Z,98.10
2022-10-23T16:29:44.882Z,98.10
2022-10-23T16:32:14.314Z,97.80
2022-10-23T16:34:43.764Z,97.90
2022-10-23T16:37:13.191Z,97.60
2022-10-23T16:39:50.544Z,97.80
2022-10-23T16:42:39.540Z,97.60
2022-10-23T16:45:27.484Z,97.80
2022-10-23T16:47:57.049Z,97.60
2022-10-23T16:50:26.584Z,97.80
2022-10-23T16:52:56.195Z,98.20
2022-10-23T16:55:26.032Z,97.90
2022-10-23T16:57:56.966Z,98.30
2022-10-23T17:00:28.038Z,98.10
2022-10-23T17:02:57.514Z,98.10
2022-10-23T17:05:26.948Z,98.40
2022-10-23T17:07:56.371Z,98.70
2022-10-23T17:10:25.900Z,98.30
2022-10-23T17:12:55.392Z,98.60
2022-10-23T17:15:24.832Z,99.00
2022-10-23T17:17:57.646Z,99.50
2022-10-23T17:20:27.077Z,99.20
2022-10-23T17:22:56.502Z,99.00
2022-10-23T17:25:26.548Z,99.00
2022-10-23T17:27:56.033Z,99.10
2022-10-23T17:30:25.504Z,99.90
2022-10-23T17:32:58.231Z,99.90
2022-10-23T17:35:26.548Z,99.90
2022-10-23T17:37:55.966Z,99.90
2022-10-23T17:40:27.154Z,99.90
2022-10-23T17:42:56.567Z,99.90
2022-10-23T17:45:26.072Z,99.90
2022-10-23T17:47:55.594Z,99.90
2022-10-23T17:50:25.016Z,99.90
2022-10-23T17:52:54.438Z,99.90
2022-10-23T17:55:23.947Z,99.90
2022-10-23T17:57:53.374Z,99.90
2022-10-23T18:00:23.167Z,99.90
2022-10-23T18:02:52.616Z,99.90
2022-10-23T18:05:22.518Z,99.90
2022-10-23T18:07:55.281Z,99.90
2022-10-23T18:10:23.922Z,99.90
2022-10-23T18:12:53.284Z,99.90
2022-10-23T18:15:23.058Z,99.90
2022-10-23T18:17:52.540Z,99.90
2022-10-23T18:20:22.045Z,99.90
2022-10-23T18:22:51.508Z,99.90
2022-10-23T18:25:21.067Z,99.90
2022-10-23T18:27:50.501Z,99.90
2022-10-23T18:30:20.393Z,99.90
2022-10-23T18:32:49.832Z,99.90
2022-10-23T18:35:19.509Z,99.90
2022-10-23T18:37:48.949Z,99.90
2022-10-23T18:40:18.735Z,99.90
2022-10-23T18:42:49.315Z,99.90
2022-10-23T18:45:18.931Z,99.90
2022-10-23T18:47:48.520Z,99.90
2022-10-23T18:50:18.099Z,99.90
2022-10-23T18:52:47.728Z,99.90
2022-10-23T18:55:17.698Z,99.90
2022-10-23T18:57:47.263Z,99.90
2022-10-23T19:00:17.345Z,99.90
2022-10-23T19:02:52.153Z,99.90
2022-10-23T19:05:18.970Z,99.90
2022-10-23T19:07:50.323Z,99.90
2022-10-23T19:10:21.999Z,99.90
2022-10-23T19:12:51.463Z,99.90
2022-10-23T19:15:20.990Z,99.90
2022-10-23T19:17:53.027Z,99.90
2022-10-23T19:20:24.421Z,99.90
2022-10-23T19:22:56.102Z,99.90
2022-10-23T19:25:29.144Z,99.90
2022-10-23T19:28:00.970Z,99.90
2022-10-23T19:30:31.201Z,99.90
2022-10-23T19:33:01.495Z,99.90
2022-10-23T19:35:31.020Z,99.90
2022-10-23T19:38:00.653Z,99.90
2022-10-23T19:40:30.573Z,99.90
2022-10-23T19:43:01.007Z,99.90
2022-10-23T19:48:01.304Z,99.90
2022-10-23T19:50:31.045Z,99.90
2022-10-23T19:53:00.468Z,99.90
2022-10-23T19:55:30.265Z,99.90
2022-10-23T19:57:59.917Z,99.90
2022-10-23T20:00:29.362Z,99.90
2022-10-23T20:02:58.803Z,99.90
2022-10-23T20:05:28.424Z,99.90
2022-10-23T20:07:57.870Z,99.90
2022-10-23T20:10:27.750Z,99.90
2022-10-23T20:15:28.348Z,99.90
2022-10-23T20:17:57.843Z,99.90
2022-10-23T20:20:27.369Z,99.90
2022-10-23T20:22:57.127Z,99.90
2022-10-23T20:25:28.124Z,99.90
2022-10-23T20:27:57.697Z,99.90
2022-10-23T20:30:27.125Z,99.90
2022-10-23T20:32:57.451Z,99.90
2022-10-23T20:35:26.944Z,99.90
2022-10-23T20:37:56.389Z,99.90
2022-10-23T20:40:25.823Z,99.90
2022-10-23T20:42:55.265Z,99.90
2022-10-23T20:45:24.703Z,99.90
2022-10-23T20:47:54.155Z,99.90
2022-10-23T20:50:24.118Z,99.90
2022-10-23T20:52:53.611Z,99.90
2022-10-23T20:55:23.492Z,99.90
2022-10-23T20:57:53.836Z,99.90
2022-10-23T21:00:23.457Z,99.90
2022-10-23T21:02:53.219Z,99.90
2022-10-23T21:05:23.117Z,99.90
2022-10-23T21:07:52.561Z,99.90
2022-10-23T21:10:21.999Z,99.90
2022-10-23T21:12:52.199Z,99.90
2022-10-23T21:15:21.628Z,99.90
2022-10-23T21:17:52.468Z,99.90
2022-10-23T21:20:21.890Z,99.90
2022-10-23T21:22:54.749Z,99.90
2022-10-23T21:25:24.416Z,99.90
2022-10-23T21:27:53.949Z,99.90
2022-10-23T21:30:23.530Z,99.90
2022-10-23T21:32:52.919Z,99.90
2022-10-23T21:35:25.389Z,99.90
2022-10-23T21:37:53.488Z,99.90
2022-10-23T21:40:22.990Z,99.90
2022-10-23T21:42:52.863Z,99.90
2022-10-23T21:45:22.292Z,99.90
2022-10-23T21:47:51.780Z,99.90
2022-10-23T21:50:21.191Z,99.90
2022-10-23T21:52:54.178Z,99.90
2022-10-23T21:55:29.242Z,99.90
2022-10-23T21:57:58.689Z,99.90
2022-10-23T22:00:28.120Z,99.90
2022-10-23T22:02:57.551Z,99.90
2022-10-23T22:05:27.005Z,99.90
2022-10-23T22:07:56.449Z,99.90
2022-10-23T22:10:25.862Z,99.90
2022-10-23T22:12:55.489Z,99.90
2022-10-23T22:15:24.911Z,99.90
2022-10-23T22:17:54.353Z,99.90
2022-10-23T22:20:24.026Z,99.90
2022-10-23T22:22:53.630Z,99.90
2022-10-23T22:25:23.051Z,99.90
2022-10-23T22:27:52.532Z,99.90
2022-10-23T22:30:21.960Z,99.90
2022-10-23T22:32:51.481Z,99.90
2022-10-23T22:35:20.984Z,99.90
2022-10-23T22:37:50.415Z,99.90
2022-10-23T22:40:43.044Z,99.90
2022-10-23T22:43:10.531Z,99.90
2022-10-23T22:45:40.002Z,99.90
2022-10-23T22:48:09.589Z,99.90
2022-10-23T22:50:39.012Z,99.90
2022-10-23T22:53:08.479Z,99.90
2022-10-23T22:55:42.708Z,99.90
2022-10-23T22:58:12.238Z,99.90
2022-10-23T23:00:43.579Z,99.90
2022-10-23T23:03:13.234Z,99.90
2022-10-23T23:05:48.490Z,99.90
2022-10-23T23:08:17.913Z,99.90
2022-10-23T23:10:55.387Z,99.90
2022-10-23T23:13:25.459Z,99.90
2022-10-23T23:15:55.353Z,99.90
2022-10-23T23:18:25.448Z,99.90
2022-10-23T23:20:55.200Z,99.90
2022-10-23T23:23:24.606Z,99.90
2022-10-23T23:25:54.046Z,99.90
2022-10-23T23:28:23.847Z,99.90
2022-10-23T23:30:56.350Z,99.90
2022-10-23T23:33:25.838Z,99.90
2022-10-23T23:35:55.276Z,99.90
2022-10-23T23:38:24.700Z,99.90
2022-10-23T23:40:55.480Z,99.90
2022-10-23T23:43:24.928Z,99.90
2022-10-23T23:45:54.615Z,99.90
2022-10-23T23:48:24.947Z,99.90
2022-10-23T23:50:54.454Z,99.90
2022-10-23T23:53:23.943Z,99.90
2022-10-23T23:55:53.501Z,99.90
2022-10-23T23:58:23.296Z,99.90
